Terminal Aerodrome Forecast
Issued by NWS

Home | Current Version | Previous Version | Text Only | Print | Product List | Glossary On
Versions: 1 2 3 4 5 6 7 8 9 10 11 12 13 14 15 16 17 18 19 20 21 22 23 24 25
000
FTUS41 KOKX 182000 AAA
TAFHPN
TAF AMD
KHPN 182042Z 1821/1918 30007KT P6SM SCT070 SCT250
     FM190000 36007KT P6SM SCT070
     FM190600 36010KT P6SM SCT070
     FM191100 03012KT P6SM FEW050
     FM191500 06012KT P6SM FEW050 SCT250
      AMD NOT SKED=

USA.gov is the U.S. government's official web portal to all federal, state and local government web resources and services.